Hovedside
METAR-TAF:

METAR-TAF

Lufthavner :

Port Moresby, Papua Ny-Guinea

breddegrad: 09-26S, lengdegrad: 147-13E, høyde over havet: 38 m

Gjeldene værobservasjon

Denne rapporten ble laget for 1 time og 42 minutter siden, klokken 16:00 UTC
Vind 3 kt fra Sørøst
Temperatur 22°C
Luftfuktighet 100%
Trykk 1011 hPa
Sikt 10 km eller mer
Få skyer i en høyde av 4000 ft

METAR: AYPY 231600Z 14003KT 9999 FEW040 22/22 Q1011

Tid: 03:42 (17:42 UTC)

Varsel

Denne rapporten ble laget for 2 timer og 39 minutter siden, klokken 15:03 UTC
Varsel gyldig fra 23. klokken 18 UTC til 24. klokken 18 UTC
Vind 5 kt fra Sør-sørøst
Sikt 10 km eller mer
Spredte skyer i en høyde av 4000 ft
Fra 24. klokken 0001 UTC
Vind 10 kt fra Sør-sørøst
Sikt 10 km eller mer
Spredte skyer i en høyde av 1800 ft
Spredte skyer i en høyde av 14000 ft

TAF: AYPY 231503Z 2318/2418 15005KT 9999 SCT040 FM240001 16010KT 9999 SCT018 SCT140

Værobservasjoner og værvarsel for over 4000 flyplasser (METAR- og TAF-rapporter).

Tilgjengelige stasjoner er representert av de røde og gule prikkene på kartet.

Hold musepekeren over prikken for å se navnet på stasjonen.

Klikk så for å se værobservasjoner og -varsler.

For å forandre kartet kan du klikke på den grønne knappen med svart kryss for å zoome inn, på den grønne knappen med strek for å zoome ut, eller på de grønne pilene for å se tilstøtende kart.


METAR-TAF: